sensor_id;sensor_type;location;lat;lon;timestamp;P1;P2;P0
49064;PMS5003;34876;51.464;-0.150;2023-12-29T00:00:13;25;19;
49064;PMS5003;34876;51.464;-0.150;2023-12-29T00:02:43;25;25;
49064;PMS5003;34876;51.464;-0.150;2023-12-29T00:05:17;40;32;
49064;PMS5003;34876;51.464;-0.150;2023-12-29T00:07:48;35;33;
49064;PMS5003;34876;51.464;-0.150;2023-12-29T00:10:16;41;35;
49064;PMS5003;34876;51.464;-0.150;2023-12-29T00:12:46;45;37;
49064;PMS5003;34876;51.464;-0.150;2023-12-29T00:15:17;37;33;
49064;PMS5003;34876;51.464;-0.150;2023-12-29T00:17:46;30;26;
49064;PMS5003;34876;51.464;-0.150;2023-12-29T00:20:15;39;34;
49064;PMS5003;34876;51.464;-0.150;2023-12-29T00:22:50;41;39;
49064;PMS5003;34876;51.464;-0.150;2023-12-29T00:25:19;33;32;
49064;PMS5003;34876;51.464;-0.150;2023-12-29T00:27:48;41;34;
49064;PMS5003;34876;51.464;-0.150;2023-12-29T00:30:17;39;28;
49064;PMS5003;34876;51.464;-0.150;2023-12-29T00:32:46;42;38;
49064;PMS5003;34876;51.464;-0.150;2023-12-29T00:35:15;44;36;
49064;PMS5003;34876;51.464;-0.150;2023-12-29T00:37:45;37;33;
49064;PMS5003;34876;51.464;-0.150;2023-12-29T00:40:14;28;25;
49064;PMS5003;34876;51.464;-0.150;2023-12-29T00:42:43;43;37;
49064;PMS5003;34876;51.464;-0.150;2023-12-29T00:45:12;46;38;
49064;PMS5003;34876;51.464;-0.150;2023-12-29T00:47:41;49;41;
49064;PMS5003;34876;51.464;-0.150;2023-12-29T00:50:10;43;39;
49064;PMS5003;34876;51.464;-0.150;2023-12-29T00:52:40;44;38;
49064;PMS5003;34876;51.464;-0.150;2023-12-29T00:55:09;27;26;
49064;PMS5003;34876;51.464;-0.150;2023-12-29T00:57:39;50;43;
49064;PMS5003;34876;51.464;-0.150;2023-12-29T01:00:10;33;30;
49064;PMS5003;34876;51.464;-0.150;2023-12-29T01:03:29;18;17;
49064;PMS5003;34876;51.464;-0.150;2023-12-29T01:05:59;22;19;
49064;PMS5003;34876;51.464;-0.150;2023-12-29T01:08:28;16;13;
49064;PMS5003;34876;51.464;-0.150;2023-12-29T01:10:57;18;17;
49064;PMS5003;34876;51.464;-0.150;2023-12-29T01:13:27;24;21;
49064;PMS5003;34876;51.464;-0.150;2023-12-29T01:15:56;19;18;
49064;PMS5003;34876;51.464;-0.150;2023-12-29T01:18:26;17;15;
49064;PMS5003;34876;51.464;-0.150;2023-12-29T01:20:54;15;14;
49064;PMS5003;34876;51.464;-0.150;2023-12-29T01:23:23;17;16;
49064;PMS5003;34876;51.464;-0.150;2023-12-29T01:25:52;24;19;
49064;PMS5003;34876;51.464;-0.150;2023-12-29T01:28:23;19;15;
49064;PMS5003;34876;51.464;-0.150;2023-12-29T01:30:54;17;16;
49064;PMS5003;34876;51.464;-0.150;2023-12-29T01:33:24;18;15;
49064;PMS5003;34876;51.464;-0.150;2023-12-29T01:35:54;21;16;
49064;PMS5003;34876;51.464;-0.150;2023-12-29T01:38:26;14;11;
49064;PMS5003;34876;51.464;-0.150;2023-12-29T01:41:01;15;13;
49064;PMS5003;34876;51.464;-0.150;2023-12-29T01:43:32;23;22;
49064;PMS5003;34876;51.464;-0.150;2023-12-29T01:46:02;18;15;
49064;PMS5003;34876;51.464;-0.150;2023-12-29T01:48:31;24;19;
49064;PMS5003;34876;51.464;-0.150;2023-12-29T01:51:01;20;17;
49064;PMS5003;34876;51.464;-0.150;2023-12-29T01:53:31;19;18;
49064;PMS5003;34876;51.464;-0.150;2023-12-29T01:56:00;15;15;
49064;PMS5003;34876;51.464;-0.150;2023-12-29T01:58:29;17;15;
49064;PMS5003;34876;51.464;-0.150;2023-12-29T02:00:59;13;13;
49064;PMS5003;34876;51.464;-0.150;2023-12-29T02:03:30;20;15;
49064;PMS5003;34876;51.464;-0.150;2023-12-29T02:05:59;14;14;
49064;PMS5003;34876;51.464;-0.150;2023-12-29T02:08:29;16;14;
49064;PMS5003;34876;51.464;-0.150;2023-12-29T02:10:59;13;10;
49064;PMS5003;34876;51.464;-0.150;2023-12-29T02:13:29;17;14;
49064;PMS5003;34876;51.464;-0.150;2023-12-29T02:15:58;9;9;
49064;PMS5003;34876;51.464;-0.150;2023-12-29T02:18:36;16;14;
49064;PMS5003;34876;51.464;-0.150;2023-12-29T02:21:07;11;11;
49064;PMS5003;34876;51.464;-0.150;2023-12-29T02:23:37;10;9;
49064;PMS5003;34876;51.464;-0.150;2023-12-29T02:26:07;17;14;
49064;PMS5003;34876;51.464;-0.150;2023-12-29T02:28:44;13;12;
49064;PMS5003;34876;51.464;-0.150;2023-12-29T02:31:22;13;13;
49064;PMS5003;34876;51.464;-0.150;2023-12-29T02:33:56;17;13;
49064;PMS5003;34876;51.464;-0.150;2023-12-29T02:36:26;10;10;
49064;PMS5003;34876;51.464;-0.150;2023-12-29T02:38:55;15;14;
49064;PMS5003;34876;51.464;-0.150;2023-12-29T02:41:25;19;13;
49064;PMS5003;34876;51.464;-0.150;2023-12-29T02:43:54;10;10;
49064;PMS5003;34876;51.464;-0.150;2023-12-29T02:46:24;17;12;
49064;PMS5003;34876;51.464;-0.150;2023-12-29T02:48:53;17;14;
49064;PMS5003;34876;51.464;-0.150;2023-12-29T02:51:22;14;10;
49064;PMS5003;34876;51.464;-0.150;2023-12-29T02:53:51;18;15;
49064;PMS5003;34876;51.464;-0.150;2023-12-29T02:56:21;10;9;
49064;PMS5003;34876;51.464;-0.150;2023-12-29T02:58:51;12;11;
49064;PMS5003;34876;51.464;-0.150;2023-12-29T03:01:21;9;7;
49064;PMS5003;34876;51.464;-0.150;2023-12-29T03:03:51;16;12;
49064;PMS5003;34876;51.464;-0.150;2023-12-29T03:06:20;10;10;
49064;PMS5003;34876;51.464;-0.150;2023-12-29T03:08:50;16;14;
49064;PMS5003;34876;51.464;-0.150;2023-12-29T03:11:20;13;12;
49064;PMS5003;34876;51.464;-0.150;2023-12-29T03:13:50;12;12;
49064;PMS5003;34876;51.464;-0.150;2023-12-29T03:16:19;14;11;
49064;PMS5003;34876;51.464;-0.150;2023-12-29T03:18:48;9;7;
49064;PMS5003;34876;51.464;-0.150;2023-12-29T03:21:22;11;9;
49064;PMS5003;34876;51.464;-0.150;2023-12-29T03:23:51;11;10;
49064;PMS5003;34876;51.464;-0.150;2023-12-29T03:26:21;9;9;
49064;PMS5003;34876;51.464;-0.150;2023-12-29T03:28:51;13;11;
49064;PMS5003;34876;51.464;-0.150;2023-12-29T03:31:24;12;11;
49064;PMS5003;34876;51.464;-0.150;2023-12-29T03:33:53;13;11;
49064;PMS5003;34876;51.464;-0.150;2023-12-29T03:36:23;15;15;
49064;PMS5003;34876;51.464;-0.150;2023-12-29T03:38:52;10;10;
49064;PMS5003;34876;51.464;-0.150;2023-12-29T03:41:21;12;10;
49064;PMS5003;34876;51.464;-0.150;2023-12-29T03:43:50;11;11;
49064;PMS5003;34876;51.464;-0.150;2023-12-29T03:46:20;10;10;
49064;PMS5003;34876;51.464;-0.150;2023-12-29T03:48:50;11;9;
49064;PMS5003;34876;51.464;-0.150;2023-12-29T03:51:20;14;13;
49064;PMS5003;34876;51.464;-0.150;2023-12-29T03:53:49;15;13;
49064;PMS5003;34876;51.464;-0.150;2023-12-29T03:56:18;16;15;
49064;PMS5003;34876;51.464;-0.150;2023-12-29T03:58:48;7;7;
49064;PMS5003;34876;51.464;-0.150;2023-12-29T04:01:18;17;12;
49064;PMS5003;34876;51.464;-0.150;2023-12-29T04:03:46;13;13;
49064;PMS5003;34876;51.464;-0.150;2023-12-29T04:06:15;9;8;
49064;PMS5003;34876;51.464;-0.150;2023-12-29T04:08:45;14;10;
49064;PMS5003;34876;51.464;-0.150;2023-12-29T04:11:19;12;9;
49064;PMS5003;34876;51.464;-0.150;2023-12-29T04:13:48;9;7;
49064;PMS5003;34876;51.464;-0.150;2023-12-29T04:16:18;19;18;
49064;PMS5003;34876;51.464;-0.150;2023-12-29T04:18:47;11;9;
49064;PMS5003;34876;51.464;-0.150;2023-12-29T04:21:16;21;16;
49064;PMS5003;34876;51.464;-0.150;2023-12-29T04:23:45;16;14;
49064;PMS5003;34876;51.464;-0.150;2023-12-29T04:26:16;12;8;
49064;PMS5003;34876;51.464;-0.150;2023-12-29T04:28:45;9;6;
49064;PMS5003;34876;51.464;-0.150;2023-12-29T04:31:14;9;9;
49064;PMS5003;34876;51.464;-0.150;2023-12-29T04:33:43;13;10;
49064;PMS5003;34876;51.464;-0.150;2023-12-29T04:36:13;11;8;
49064;PMS5003;34876;51.464;-0.150;2023-12-29T04:38:43;15;12;
49064;PMS5003;34876;51.464;-0.150;2023-12-29T04:41:12;9;5;
49064;PMS5003;34876;51.464;-0.150;2023-12-29T04:43:41;13;10;
49064;PMS5003;34876;51.464;-0.150;2023-12-29T04:46:10;11;9;
49064;PMS5003;34876;51.464;-0.150;2023-12-29T04:48:42;12;12;
49064;PMS5003;34876;51.464;-0.150;2023-12-29T04:51:14;10;7;
49064;PMS5003;34876;51.464;-0.150;2023-12-29T04:53:43;14;12;
49064;PMS5003;34876;51.464;-0.150;2023-12-29T04:56:13;11;9;
49064;PMS5003;34876;51.464;-0.150;2023-12-29T04:58:42;12;9;
49064;PMS5003;34876;51.464;-0.150;2023-12-29T05:01:12;6;6;
49064;PMS5003;34876;51.464;-0.150;2023-12-29T05:03:41;10;8;
49064;PMS5003;34876;51.464;-0.150;2023-12-29T05:06:10;9;9;
49064;PMS5003;34876;51.464;-0.150;2023-12-29T05:08:40;10;8;
49064;PMS5003;34876;51.464;-0.150;2023-12-29T05:11:10;9;9;
49064;PMS5003;34876;51.464;-0.150;2023-12-29T05:13:39;7;6;
49064;PMS5003;34876;51.464;-0.150;2023-12-29T05:16:09;6;6;
49064;PMS5003;34876;51.464;-0.150;2023-12-29T05:18:38;7;7;
49064;PMS5003;34876;51.464;-0.150;2023-12-29T05:21:13;11;11;
49064;PMS5003;34876;51.464;-0.150;2023-12-29T05:23:43;8;8;
49064;PMS5003;34876;51.464;-0.150;2023-12-29T05:26:12;5;5;
49064;PMS5003;34876;51.464;-0.150;2023-12-29T05:28:42;9;7;
49064;PMS5003;34876;51.464;-0.150;2023-12-29T05:31:12;10;8;
49064;PMS5003;34876;51.464;-0.150;2023-12-29T05:33:40;7;6;
49064;PMS5003;34876;51.464;-0.150;2023-12-29T05:36:10;9;9;
49064;PMS5003;34876;51.464;-0.150;2023-12-29T05:38:39;9;7;
49064;PMS5003;34876;51.464;-0.150;2023-12-29T05:41:12;7;7;
49064;PMS5003;34876;51.464;-0.150;2023-12-29T05:43:42;13;11;
49064;PMS5003;34876;51.464;-0.150;2023-12-29T05:46:11;15;15;
49064;PMS5003;34876;51.464;-0.150;2023-12-29T05:48:41;13;10;
49064;PMS5003;34876;51.464;-0.150;2023-12-29T05:51:11;9;7;
49064;PMS5003;34876;51.464;-0.150;2023-12-29T05:53:42;7;6;
49064;PMS5003;34876;51.464;-0.150;2023-12-29T05:56:12;8;6;
49064;PMS5003;34876;51.464;-0.150;2023-12-29T05:58:42;8;7;
49064;PMS5003;34876;51.464;-0.150;2023-12-29T06:01:12;8;7;
49064;PMS5003;34876;51.464;-0.150;2023-12-29T06:03:41;7;7;
49064;PMS5003;34876;51.464;-0.150;2023-12-29T06:06:10;7;5;
49064;PMS5003;34876;51.464;-0.150;2023-12-29T06:08:45;6;6;
49064;PMS5003;34876;51.464;-0.150;2023-12-29T06:11:15;6;6;
49064;PMS5003;34876;51.464;-0.150;2023-12-29T06:13:44;8;5;
49064;PMS5003;34876;51.464;-0.150;2023-12-29T06:16:17;7;5;
49064;PMS5003;34876;51.464;-0.150;2023-12-29T06:18:47;6;6;
49064;PMS5003;34876;51.464;-0.150;2023-12-29T06:21:16;9;6;
49064;PMS5003;34876;51.464;-0.150;2023-12-29T06:23:46;8;7;
49064;PMS5003;34876;51.464;-0.150;2023-12-29T06:26:15;10;8;
49064;PMS5003;34876;51.464;-0.150;2023-12-29T06:28:45;5;5;
49064;PMS5003;34876;51.464;-0.150;2023-12-29T06:31:16;8;8;
49064;PMS5003;34876;51.464;-0.150;2023-12-29T06:33:46;7;6;
49064;PMS5003;34876;51.464;-0.150;2023-12-29T06:36:17;6;6;
49064;PMS5003;34876;51.464;-0.150;2023-12-29T06:38:45;9;6;
49064;PMS5003;34876;51.464;-0.150;2023-12-29T06:41:15;8;5;
49064;PMS5003;34876;51.464;-0.150;2023-12-29T06:43:45;4;4;
49064;PMS5003;34876;51.464;-0.150;2023-12-29T06:46:14;6;6;
49064;PMS5003;34876;51.464;-0.150;2023-12-29T06:48:43;4;4;
49064;PMS5003;34876;51.464;-0.150;2023-12-29T06:51:17;9;8;
49064;PMS5003;34876;51.464;-0.150;2023-12-29T06:53:47;6;6;
49064;PMS5003;34876;51.464;-0.150;2023-12-29T06:56:16;7;7;
49064;PMS5003;34876;51.464;-0.150;2023-12-29T06:58:46;3;3;
49064;PMS5003;34876;51.464;-0.150;2023-12-29T07:01:21;6;5;
49064;PMS5003;34876;51.464;-0.150;2023-12-29T07:03:50;9;8;
49064;PMS5003;34876;51.464;-0.150;2023-12-29T07:06:19;5;5;
49064;PMS5003;34876;51.464;-0.150;2023-12-29T07:08:48;5;4;
49064;PMS5003;34876;51.464;-0.150;2023-12-29T07:11:22;5;5;
49064;PMS5003;34876;51.464;-0.150;2023-12-29T07:13:56;6;6;
49064;PMS5003;34876;51.464;-0.150;2023-12-29T07:16:31;7;5;
49064;PMS5003;34876;51.464;-0.150;2023-12-29T07:19:01;7;7;
49064;PMS5003;34876;51.464;-0.150;2023-12-29T07:21:30;6;5;
49064;PMS5003;34876;51.464;-0.150;2023-12-29T07:24:01;10;10;
49064;PMS5003;34876;51.464;-0.150;2023-12-29T07:26:32;6;4;
49064;PMS5003;34876;51.464;-0.150;2023-12-29T07:29:01;9;7;
49064;PMS5003;34876;51.464;-0.150;2023-12-29T07:31:31;3;3;
49064;PMS5003;34876;51.464;-0.150;2023-12-29T07:34:01;6;5;
49064;PMS5003;34876;51.464;-0.150;2023-12-29T07:36:30;10;8;
49064;PMS5003;34876;51.464;-0.150;2023-12-29T07:39:02;7;7;
49064;PMS5003;34876;51.464;-0.150;2023-12-29T07:41:39;8;7;
49064;PMS5003;34876;51.464;-0.150;2023-12-29T07:44:10;5;5;
49064;PMS5003;34876;51.464;-0.150;2023-12-29T07:46:39;8;7;
49064;PMS5003;34876;51.464;-0.150;2023-12-29T07:49:09;8;4;
49064;PMS5003;34876;51.464;-0.150;2023-12-29T07:51:39;13;9;
49064;PMS5003;34876;51.464;-0.150;2023-12-29T07:54:09;6;5;
49064;PMS5003;34876;51.464;-0.150;2023-12-29T07:56:38;11;9;
49064;PMS5003;34876;51.464;-0.150;2023-12-29T07:59:08;7;6;
49064;PMS5003;34876;51.464;-0.150;2023-12-29T08:01:42;8;4;
49064;PMS5003;34876;51.464;-0.150;2023-12-29T08:04:11;8;8;
49064;PMS5003;34876;51.464;-0.150;2023-12-29T08:06:42;6;6;
49064;PMS5003;34876;51.464;-0.150;2023-12-29T08:09:11;8;7;
49064;PMS5003;34876;51.464;-0.150;2023-12-29T08:11:41;5;5;
49064;PMS5003;34876;51.464;-0.150;2023-12-29T08:14:11;7;7;
49064;PMS5003;34876;51.464;-0.150;2023-12-29T08:16:41;4;4;
49064;PMS5003;34876;51.464;-0.150;2023-12-29T08:19:10;7;7;
49064;PMS5003;34876;51.464;-0.150;2023-12-29T08:21:40;8;5;
49064;PMS5003;34876;51.464;-0.150;2023-12-29T08:24:10;6;6;
49064;PMS5003;34876;51.464;-0.150;2023-12-29T08:26:43;7;6;
49064;PMS5003;34876;51.464;-0.150;2023-12-29T08:29:14;7;6;
49064;PMS5003;34876;51.464;-0.150;2023-12-29T08:31:43;6;6;
49064;PMS5003;34876;51.464;-0.150;2023-12-29T08:34:13;8;5;
49064;PMS5003;34876;51.464;-0.150;2023-12-29T08:36:43;7;7;
49064;PMS5003;34876;51.464;-0.150;2023-12-29T08:39:13;9;7;
49064;PMS5003;34876;51.464;-0.150;2023-12-29T08:41:42;9;9;
49064;PMS5003;34876;51.464;-0.150;2023-12-29T08:44:11;6;6;
49064;PMS5003;34876;51.464;-0.150;2023-12-29T08:46:40;7;5;
49064;PMS5003;34876;51.464;-0.150;2023-12-29T08:49:09;11;11;
49064;PMS5003;34876;51.464;-0.150;2023-12-29T08:51:38;8;6;
49064;PMS5003;34876;51.464;-0.150;2023-12-29T08:54:08;8;6;
49064;PMS5003;34876;51.464;-0.150;2023-12-29T08:56:42;7;7;
49064;PMS5003;34876;51.464;-0.150;2023-12-29T08:59:12;10;8;
49064;PMS5003;34876;51.464;-0.150;2023-12-29T09:01:47;5;5;
49064;PMS5003;34876;51.464;-0.150;2023-12-29T09:04:17;9;8;
49064;PMS5003;34876;51.464;-0.150;2023-12-29T09:06:47;12;10;
49064;PMS5003;34876;51.464;-0.150;2023-12-29T09:09:16;8;6;
49064;PMS5003;34876;51.464;-0.150;2023-12-29T09:11:46;9;8;
49064;PMS5003;34876;51.464;-0.150;2023-12-29T09:14:15;11;9;
49064;PMS5003;34876;51.464;-0.150;2023-12-29T09:16:47;8;8;
49064;PMS5003;34876;51.464;-0.150;2023-12-29T09:19:16;11;11;
49064;PMS5003;34876;51.464;-0.150;2023-12-29T09:21:46;12;8;
49064;PMS5003;34876;51.464;-0.150;2023-12-29T09:24:15;7;7;
49064;PMS5003;34876;51.464;-0.150;2023-12-29T09:26:44;8;7;
49064;PMS5003;34876;51.464;-0.150;2023-12-29T09:29:13;7;7;
49064;PMS5003;34876;51.464;-0.150;2023-12-29T09:31:44;14;13;
49064;PMS5003;34876;51.464;-0.150;2023-12-29T09:34:13;7;6;
49064;PMS5003;34876;51.464;-0.150;2023-12-29T09:36:42;7;7;
49064;PMS5003;34876;51.464;-0.150;2023-12-29T09:39:11;8;8;
49064;PMS5003;34876;51.464;-0.150;2023-12-29T09:41:42;9;7;
49064;PMS5003;34876;51.464;-0.150;2023-12-29T09:44:14;8;7;
49064;PMS5003;34876;51.464;-0.150;2023-12-29T09:46:45;9;6;
49064;PMS5003;34876;51.464;-0.150;2023-12-29T09:49:18;8;7;
49064;PMS5003;34876;51.464;-0.150;2023-12-29T09:51:48;10;10;
49064;PMS5003;34876;51.464;-0.150;2023-12-29T09:54:17;9;7;
49064;PMS5003;34876;51.464;-0.150;2023-12-29T09:56:49;11;8;
49064;PMS5003;34876;51.464;-0.150;2023-12-29T09:59:25;9;9;
49064;PMS5003;34876;51.464;-0.150;2023-12-29T10:02:03;8;8;
49064;PMS5003;34876;51.464;-0.150;2023-12-29T10:04:34;8;6;
49064;PMS5003;34876;51.464;-0.150;2023-12-29T10:07:04;8;8;
49064;PMS5003;34876;51.464;-0.150;2023-12-29T10:09:37;11;11;
49064;PMS5003;34876;51.464;-0.150;2023-12-29T10:12:09;11;7;
49064;PMS5003;34876;51.464;-0.150;2023-12-29T10:14:42;9;7;
49064;PMS5003;34876;51.464;-0.150;2023-12-29T10:17:19;8;8;
49064;PMS5003;34876;51.464;-0.150;2023-12-29T10:20:01;10;7;
49064;PMS5003;34876;51.464;-0.150;2023-12-29T10:22:40;6;5;
49064;PMS5003;34876;51.464;-0.150;2023-12-29T10:25:19;10;9;
49064;PMS5003;34876;51.464;-0.150;2023-12-29T10:27:51;8;7;
49064;PMS5003;34876;51.464;-0.150;2023-12-29T10:30:22;10;10;
49064;PMS5003;34876;51.464;-0.150;2023-12-29T10:32:52;6;6;
49064;PMS5003;34876;51.464;-0.150;2023-12-29T10:35:27;7;6;
49064;PMS5003;34876;51.464;-0.150;2023-12-29T10:37:59;8;4;
49064;PMS5003;34876;51.464;-0.150;2023-12-29T10:40:37;8;8;
49064;PMS5003;34876;51.464;-0.150;2023-12-29T10:43:08;8;7;
49064;PMS5003;34876;51.464;-0.150;2023-12-29T10:45:37;11;8;
49064;PMS5003;34876;51.464;-0.150;2023-12-29T10:48:07;6;5;
49064;PMS5003;34876;51.464;-0.150;2023-12-29T10:50:43;7;7;
49064;PMS5003;34876;51.464;-0.150;2023-12-29T10:53:14;7;7;
49064;PMS5003;34876;51.464;-0.150;2023-12-29T10:55:44;8;7;
49064;PMS5003;34876;51.464;-0.150;2023-12-29T10:58:15;6;5;
49064;PMS5003;34876;51.464;-0.150;2023-12-29T11:00:44;10;7;
49064;PMS5003;34876;51.464;-0.150;2023-12-29T11:03:14;5;5;
49064;PMS5003;34876;51.464;-0.150;2023-12-29T11:05:44;4;4;
49064;PMS5003;34876;51.464;-0.150;2023-12-29T11:08:15;6;6;
49064;PMS5003;34876;51.464;-0.150;2023-12-29T11:10:45;10;10;
49064;PMS5003;34876;51.464;-0.150;2023-12-29T11:13:15;6;6;
49064;PMS5003;34876;51.464;-0.150;2023-12-29T11:15:44;6;5;
49064;PMS5003;34876;51.464;-0.150;2023-12-29T11:18:14;8;6;
49064;PMS5003;34876;51.464;-0.150;2023-12-29T11:20:45;5;5;
49064;PMS5003;34876;51.464;-0.150;2023-12-29T11:23:15;6;6;
49064;PMS5003;34876;51.464;-0.150;2023-12-29T11:25:47;6;5;
49064;PMS5003;34876;51.464;-0.150;2023-12-29T11:28:16;10;8;
49064;PMS5003;34876;51.464;-0.150;2023-12-29T11:30:46;9;8;
49064;PMS5003;34876;51.464;-0.150;2023-12-29T11:33:17;6;5;
49064;PMS5003;34876;51.464;-0.150;2023-12-29T11:35:53;5;5;
49064;PMS5003;34876;51.464;-0.150;2023-12-29T11:38:33;8;6;
49064;PMS5003;34876;51.464;-0.150;2023-12-29T11:41:13;9;6;
49064;PMS5003;34876;51.464;-0.150;2023-12-29T11:43:58;14;13;
49064;PMS5003;34876;51.464;-0.150;2023-12-29T11:46:36;8;7;
49064;PMS5003;34876;51.464;-0.150;2023-12-29T11:49:07;7;6;
49064;PMS5003;34876;51.464;-0.150;2023-12-29T11:51:39;8;5;
49064;PMS5003;34876;51.464;-0.150;2023-12-29T11:54:10;6;6;
49064;PMS5003;34876;51.464;-0.150;2023-12-29T11:56:52;5;5;
49064;PMS5003;34876;51.464;-0.150;2023-12-29T11:59:22;8;8;
49064;PMS5003;34876;51.464;-0.150;2023-12-29T12:01:56;10;8;
49064;PMS5003;34876;51.464;-0.150;2023-12-29T12:04:42;7;7;
49064;PMS5003;34876;51.464;-0.150;2023-12-29T12:07:15;9;9;
49064;PMS5003;34876;51.464;-0.150;2023-12-29T12:09:46;8;5;
49064;PMS5003;34876;51.464;-0.150;2023-12-29T12:12:40;12;12;
49064;PMS5003;34876;51.464;-0.150;2023-12-29T12:15:31;9;7;
49064;PMS5003;34876;51.464;-0.150;2023-12-29T12:18:01;9;9;
49064;PMS5003;34876;51.464;-0.150;2023-12-29T12:20:33;10;7;
49064;PMS5003;34876;51.464;-0.150;2023-12-29T12:23:02;8;8;
49064;PMS5003;34876;51.464;-0.150;2023-12-29T12:25:39;6;6;
49064;PMS5003;34876;51.464;-0.150;2023-12-29T12:28:10;10;8;
49064;PMS5003;34876;51.464;-0.150;2023-12-29T12:30:43;10;10;
49064;PMS5003;34876;51.464;-0.150;2023-12-29T12:33:13;11;10;
49064;PMS5003;34876;51.464;-0.150;2023-12-29T12:35:43;7;7;
49064;PMS5003;34876;51.464;-0.150;2023-12-29T12:38:13;10;8;
49064;PMS5003;34876;51.464;-0.150;2023-12-29T12:40:44;11;8;
49064;PMS5003;34876;51.464;-0.150;2023-12-29T12:43:14;9;8;
49064;PMS5003;34876;51.464;-0.150;2023-12-29T12:45:47;15;14;
49064;PMS5003;34876;51.464;-0.150;2023-12-29T12:48:34;17;14;
49064;PMS5003;34876;51.464;-0.150;2023-12-29T12:51:04;11;10;
49064;PMS5003;34876;51.464;-0.150;2023-12-29T12:53:33;12;12;
49064;PMS5003;34876;51.464;-0.150;2023-12-29T12:56:04;15;12;
49064;PMS5003;34876;51.464;-0.150;2023-12-29T12:58:35;15;12;
49064;PMS5003;34876;51.464;-0.150;2023-12-29T13:01:05;19;13;
49064;PMS5003;34876;51.464;-0.150;2023-12-29T13:03:37;14;13;
49064;PMS5003;34876;51.464;-0.150;2023-12-29T13:06:07;15;13;
49064;PMS5003;34876;51.464;-0.150;2023-12-29T13:08:37;12;12;
49064;PMS5003;34876;51.464;-0.150;2023-12-29T13:11:06;15;13;
49064;PMS5003;34876;51.464;-0.150;2023-12-29T13:13:37;20;17;
49064;PMS5003;34876;51.464;-0.150;2023-12-29T13:16:08;17;14;
49064;PMS5003;34876;51.464;-0.150;2023-12-29T13:18:38;21;16;
49064;PMS5003;34876;51.464;-0.150;2023-12-29T13:21:08;17;13;
49064;PMS5003;34876;51.464;-0.150;2023-12-29T13:23:37;15;14;
49064;PMS5003;34876;51.464;-0.150;2023-12-29T13:26:07;14;14;
49064;PMS5003;34876;51.464;-0.150;2023-12-29T13:28:38;18;17;
49064;PMS5003;34876;51.464;-0.150;2023-12-29T13:31:10;13;11;
49064;PMS5003;34876;51.464;-0.150;2023-12-29T13:33:44;15;14;
49064;PMS5003;34876;51.464;-0.150;2023-12-29T13:36:21;16;14;
49064;PMS5003;34876;51.464;-0.150;2023-12-29T13:38:58;10;10;
49064;PMS5003;34876;51.464;-0.150;2023-12-29T13:41:35;19;19;
49064;PMS5003;34876;51.464;-0.150;2023-12-29T13:44:06;14;14;
49064;PMS5003;34876;51.464;-0.150;2023-12-29T13:46:36;18;15;
49064;PMS5003;34876;51.464;-0.150;2023-12-29T13:49:10;18;17;
49064;PMS5003;34876;51.464;-0.150;2023-12-29T13:51:40;16;12;
49064;PMS5003;34876;51.464;-0.150;2023-12-29T13:54:10;22;19;
49064;PMS5003;34876;51.464;-0.150;2023-12-29T13:56:50;23;20;
49064;PMS5003;34876;51.464;-0.150;2023-12-29T13:59:32;21;17;
49064;PMS5003;34876;51.464;-0.150;2023-12-29T14:02:18;14;13;
49064;PMS5003;34876;51.464;-0.150;2023-12-29T14:04:51;26;19;
49064;PMS5003;34876;51.464;-0.150;2023-12-29T14:07:43;22;22;
49064;PMS5003;34876;51.464;-0.150;2023-12-29T14:10:18;18;15;
49064;PMS5003;34876;51.464;-0.150;2023-12-29T14:12:46;19;17;
49064;PMS5003;34876;51.464;-0.150;2023-12-29T14:15:16;15;14;
49064;PMS5003;34876;51.464;-0.150;2023-12-29T14:17:45;18;15;
49064;PMS5003;34876;51.464;-0.150;2023-12-29T14:20:32;15;14;
49064;PMS5003;34876;51.464;-0.150;2023-12-29T14:23:02;22;17;
49064;PMS5003;34876;51.464;-0.150;2023-12-29T14:25:37;21;17;
49064;PMS5003;34876;51.464;-0.150;2023-12-29T14:28:14;18;15;
49064;PMS5003;34876;51.464;-0.150;2023-12-29T14:30:44;17;16;
49064;PMS5003;34876;51.464;-0.150;2023-12-29T14:33:15;20;17;
49064;PMS5003;34876;51.464;-0.150;2023-12-29T14:35:44;19;16;
49064;PMS5003;34876;51.464;-0.150;2023-12-29T14:38:14;16;16;
49064;PMS5003;34876;51.464;-0.150;2023-12-29T14:40:44;18;15;
49064;PMS5003;34876;51.464;-0.150;2023-12-29T14:43:13;19;18;
49064;PMS5003;34876;51.464;-0.150;2023-12-29T14:45:41;11;11;
49064;PMS5003;34876;51.464;-0.150;2023-12-29T14:48:10;16;16;
49064;PMS5003;34876;51.464;-0.150;2023-12-29T14:50:39;15;13;
49064;PMS5003;34876;51.464;-0.150;2023-12-29T14:53:10;16;13;
49064;PMS5003;34876;51.464;-0.150;2023-12-29T14:55:41;20;16;
49064;PMS5003;34876;51.464;-0.150;2023-12-29T14:58:11;15;14;
49064;PMS5003;34876;51.464;-0.150;2023-12-29T15:00:43;17;14;
49064;PMS5003;34876;51.464;-0.150;2023-12-29T15:03:13;22;17;
49064;PMS5003;34876;51.464;-0.150;2023-12-29T15:05:47;14;14;
49064;PMS5003;34876;51.464;-0.150;2023-12-29T15:08:17;17;13;
49064;PMS5003;34876;51.464;-0.150;2023-12-29T15:10:46;16;15;
49064;PMS5003;34876;51.464;-0.150;2023-12-29T15:13:16;16;13;
49064;PMS5003;34876;51.464;-0.150;2023-12-29T15:15:45;19;17;
49064;PMS5003;34876;51.464;-0.150;2023-12-29T15:18:14;15;13;
49064;PMS5003;34876;51.464;-0.150;2023-12-29T15:20:53;15;14;
49064;PMS5003;34876;51.464;-0.150;2023-12-29T15:23:23;18;17;
49064;PMS5003;34876;51.464;-0.150;2023-12-29T15:25:55;18;15;
49064;PMS5003;34876;51.464;-0.150;2023-12-29T15:28:25;17;15;
49064;PMS5003;34876;51.464;-0.150;2023-12-29T15:31:00;18;16;
49064;PMS5003;34876;51.464;-0.150;2023-12-29T15:33:28;22;19;
49064;PMS5003;34876;51.464;-0.150;2023-12-29T15:35:57;15;15;
49064;PMS5003;34876;51.464;-0.150;2023-12-29T15:38:28;16;16;
49064;PMS5003;34876;51.464;-0.150;2023-12-29T15:40:58;26;18;
49064;PMS5003;34876;51.464;-0.150;2023-12-29T15:43:28;26;20;
49064;PMS5003;34876;51.464;-0.150;2023-12-29T15:45:59;17;15;
49064;PMS5003;34876;51.464;-0.150;2023-12-29T15:48:29;19;18;
49064;PMS5003;34876;51.464;-0.150;2023-12-29T15:50:59;14;12;
49064;PMS5003;34876;51.464;-0.150;2023-12-29T15:53:29;15;13;
49064;PMS5003;34876;51.464;-0.150;2023-12-29T15:55:59;12;11;
49064;PMS5003;34876;51.464;-0.150;2023-12-29T15:58:28;14;13;
49064;PMS5003;34876;51.464;-0.150;2023-12-29T16:00:59;17;15;
49064;PMS5003;34876;51.464;-0.150;2023-12-29T16:03:31;16;13;
49064;PMS5003;34876;51.464;-0.150;2023-12-29T16:06:05;13;12;
49064;PMS5003;34876;51.464;-0.150;2023-12-29T16:08:34;16;12;
49064;PMS5003;34876;51.464;-0.150;2023-12-29T16:11:07;16;15;
49064;PMS5003;34876;51.464;-0.150;2023-12-29T16:13:37;14;12;
49064;PMS5003;34876;51.464;-0.150;2023-12-29T16:16:07;13;13;
49064;PMS5003;34876;51.464;-0.150;2023-12-29T16:18:36;16;13;
49064;PMS5003;34876;51.464;-0.150;2023-12-29T16:21:06;10;9;
49064;PMS5003;34876;51.464;-0.150;2023-12-29T16:23:35;13;11;
49064;PMS5003;34876;51.464;-0.150;2023-12-29T16:26:05;14;13;
49064;PMS5003;34876;51.464;-0.150;2023-12-29T16:28:36;13;11;
49064;PMS5003;34876;51.464;-0.150;2023-12-29T16:31:11;14;11;
49064;PMS5003;34876;51.464;-0.150;2023-12-29T16:33:39;15;13;
49064;PMS5003;34876;51.464;-0.150;2023-12-29T16:36:11;9;9;
49064;PMS5003;34876;51.464;-0.150;2023-12-29T16:38:45;9;7;
49064;PMS5003;34876;51.464;-0.150;2023-12-29T16:41:16;13;13;